Maran Pythia — SVAQ5 — position and weather

sailwx.info

Track history (hours):
 
Tides and Currents Weather Stations Pressure Air Temp Water Temp Dewpoint Dewpoint Depression Visibility Wind Speed Wind Dir Waves Ship Positions

Maran Pythia

Last reported at 2017-Mar-21 14:32 UTC. Time now 2017-Mar-23 00:12 UTC.
Position N 44°27' E 037°26'.

Length 275 m; draft 15.9 m.

Type: Ship. MMSI: 240893000.

Date/timePositionNaut miles runAvg speedWind from/ knotsBaromVisibWave heightAir tempDewpointWater temp
2017-Mar-21 14:32N 44°27' E 037°26'1312.9
2017-Mar-21 13:34N 44°33' E 037°42'4 0.9
2017-Mar-21 08:34N 44°32' E 037°36'1 0.9
2017-Mar-21 07:33N 44°31' E 037°37'1 0.9
2017-Mar-21 06:34N 44°31' E 037°38'1 0.8
2017-Mar-21 05:34N 44°31' E 037°39'1 0.8
2017-Mar-21 04:33N 44°30' E 037°40'1 0.7
2017-Mar-21 03:33N 44°30' E 037°41'1 0.6
2017-Mar-21 02:34N 44°30' E 037°42'1 0.6
2017-Mar-21 01:33N 44°30' E 037°42'0 0.4
2017-Mar-21 00:33N 44°30' E 037°43'0 0.5
2017-Mar-20 23:33N 44°30' E 037°44'1 0.6
2017-Mar-20 22:34N 44°29' E 037°44'1 1.4
2017-Mar-20 21:34N 44°31' E 037°45'2 2.3
2017-Mar-20 20:34N 44°33' E 037°43'1 0.8
2017-Mar-20 19:34N 44°32' E 037°43'1 0.6
2017-Mar-20 18:34N 44°32' E 037°43'1 0.6
2017-Mar-20 17:34N 44°32' E 037°43'1 0.8
2017-Mar-20 16:34N 44°31' E 037°43'3 3.1
2017-Mar-20 15:34N 44°34' E 037°45'0 0.5
2017-Mar-20 14:33N 44°33' E 037°45'1 0.8
2017-Mar-20 13:34N 44°33' E 037°45'1 0.7
2017-Mar-20 12:34N 44°32' E 037°45'1 0.6
2017-Mar-20 11:34N 44°31' E 037°44'1 0.5
2017-Mar-20 10:34N 44°31' E 037°44'0 0.4
2017-Mar-20 09:34N 44°31' E 037°44'0 0.3
2017-Mar-20 08:34N 44°31' E 037°43'0 0.2
2017-Mar-20 07:34N 44°30' E 037°43'0 0.3
2017-Mar-20 06:34N 44°31' E 037°43'0 0.3
2017-Mar-20 05:34N 44°31' E 037°43'0 0.1
2017-Mar-20 04:33N 44°31' E 037°43'1 0.6
2017-Mar-20 03:34N 44°30' E 037°43'1 1.4
2017-Mar-20 02:34N 44°32' E 037°42'1 0.5
2017-Mar-20 01:34N 44°32' E 037°43'1 1.3
2017-Mar-20 00:33N 44°31' E 037°44'1 1.3
2017-Mar-19 23:33N 44°30' E 037°44'2 2.1
2017-Mar-19 22:34N 44°32' E 037°43'1 1.4
2017-Mar-19 21:34N 44°30' E 037°44'1 0.8
2017-Mar-19 20:34N 44°30' E 037°45'2 2.1
2017-Mar-19 19:33N 44°32' E 037°43'1 0.9
2017-Mar-19 18:33N 44°33' E 037°44'2 1.8
2017-Mar-19 17:33N 44°31' E 037°45'0 0.3
2017-Mar-19 16:33N 44°31' E 037°46'2 1.8
2017-Mar-19 15:33N 44°33' E 037°45'2 1.9
2017-Mar-19 14:33N 44°32' E 037°47'2 1.6
2017-Mar-19 13:33N 44°30' E 037°48'3 3.5
2017-Mar-19 12:33N 44°33' E 037°45'2 1.6
2017-Mar-19 11:33N 44°31' E 037°45'2 1.7
2017-Mar-19 10:33N 44°30' E 037°45'2 2.5
2017-Mar-19 09:33N 44°32' E 037°43'2 2.4
2017-Mar-19 08:33N 44°30' E 037°45'5 5.0
2017-Mar-19 07:33N 44°33' E 037°40'2 1.8
2017-Mar-19 06:33N 44°32' E 037°42'2 2.3
2017-Mar-19 05:33N 44°34' E 037°44'1 0.9
2017-Mar-19 04:23N 44°34' E 037°45'1 0.8
2017-Mar-19 03:33N 44°33' E 037°45'1 1.5
2017-Mar-19 02:33N 44°32' E 037°45'0 0.3
2017-Mar-19 01:33N 44°31' E 037°45'3 2.9
2017-Mar-19 00:33N 44°34' E 037°45'1 1.1
2017-Mar-18 23:33N 44°33' E 037°45'1 1.1
2017-Mar-18 22:29N 44°34' E 037°44'3 3.4
2017-Mar-18 21:33N 44°36' E 037°41'1 0.9
2017-Mar-18 20:33N 44°36' E 037°42'0 0.0
2017-Mar-18 19:33N 44°36' E 037°42'2 1.8
2017-Mar-18 18:33N 44°37' E 037°40'1 0.6
2017-Mar-18 17:33N 44°37' E 037°40'0 0.1
2017-Mar-18 16:33N 44°37' E 037°40'0 0.0
2017-Mar-18 15:33N 44°37' E 037°40'0 0.0
2017-Mar-18 14:33N 44°37' E 037°40'0 0.0
2017-Mar-18 13:33N 44°37' E 037°40'0 0.0
2017-Mar-18 12:33N 44°37' E 037°40'0 0.1
2017-Mar-18 11:32N 44°37' E 037°40'0 0.1
2017-Mar-18 10:33N 44°37' E 037°39'0 0.0
2017-Mar-18 09:32N 44°37' E 037°39'0 0.0
2017-Mar-18 08:33N 44°37' E 037°39'0 0.0
2017-Mar-18 07:33N 44°37' E 037°39'0 0.0
2017-Mar-18 06:33N 44°37' E 037°39'0 0.0
2017-Mar-18 05:33N 44°37' E 037°39'0 0.0
2017-Mar-18 04:33N 44°37' E 037°39'0 0.0
2017-Mar-18 03:33N 44°37' E 037°39'0 0.0
2017-Mar-18 02:31N 44°37' E 037°39'0 0.0
2017-Mar-18 01:33N 44°37' E 037°39'0 0.0
2017-Mar-18 00:33N 44°37' E 037°39'0 0.0
2017-Mar-17 23:33N 44°37' E 037°39'0 0.0
2017-Mar-17 22:33N 44°37' E 037°39'0 0.0
2017-Mar-17 21:33N 44°37' E 037°39'0 0.0
2017-Mar-17 20:26N 44°37' E 037°39'0 0.0
2017-Mar-17 19:33N 44°37' E 037°39'0 0.0
2017-Mar-17 18:33N 44°37' E 037°39'0 0.1
2017-Mar-17 17:33N 44°37' E 037°39'1 0.6
2017-Mar-17 16:33N 44°38' E 037°39'3 2.8
2017-Mar-17 15:33N 44°35' E 037°39'6 5.7
2017-Mar-17 14:33N 44°34' E 037°47'5 5.0
2017-Mar-17 13:32N 44°34' E 037°54'0 0.1
2017-Mar-17 12:32N 44°34' E 037°54'0 0.0
2017-Mar-17 11:32N 44°34' E 037°54'0 0.0
2017-Mar-17 10:32N 44°34' E 037°54'0 0.0
2017-Mar-17 09:29N 44°35' E 037°54'0 0.1
2017-Mar-17 08:32N 44°34' E 037°54'0 0.0
2017-Mar-17 07:32N 44°34' E 037°54'0 0.1
2017-Mar-17 06:32N 44°35' E 037°54'0 0.0
2017-Mar-17 05:32N 44°35' E 037°54'0 0.0
2017-Mar-17 04:32N 44°35' E 037°54'0 0.0
2017-Mar-17 03:32N 44°35' E 037°54'0 0.0
2017-Mar-17 02:32N 44°35' E 037°54'0 0.0
2017-Mar-17 01:29N 44°34' E 037°54'0 0.0
2017-Mar-17 00:32N 44°34' E 037°54'0 0.0
2017-Mar-16 23:32N 44°35' E 037°54'0 0.0
2017-Mar-16 22:32N 44°34' E 037°54'0 0.0
2017-Mar-16 21:29N 44°34' E 037°54'0 0.0
2017-Mar-16 20:29N 44°34' E 037°54'0 0.0
2017-Mar-16 19:32N 44°34' E 037°54'0 0.0
2017-Mar-16 18:32N 44°34' E 037°54'0 0.1
2017-Mar-16 17:32N 44°34' E 037°54'0 0.0
2017-Mar-16 16:32N 44°34' E 037°54'0 0.0
2017-Mar-16 15:32N 44°34' E 037°54'0 0.0
2017-Mar-16 14:32N 44°34' E 037°54'0 0.1
2017-Mar-16 13:33N 44°34' E 037°54'3 3.2
2017-Mar-16 12:33N 44°36' E 037°50'4 3.8
2017-Mar-16 11:33N 44°37' E 037°45'1 0.8
2017-Mar-16 10:33N 44°37' E 037°44'2 2.0
2017-Mar-16 09:33N 44°36' E 037°42'9 9.5
2017-Mar-16 08:33N 44°29' E 037°33'6 6.3
2017-Mar-16 07:33N 44°34' E 037°38'0 0.3
2017-Mar-16 06:33N 44°34' E 037°38'6 5.8
2017-Mar-16 05:33N 44°28' E 037°37'6 5.7
2017-Mar-16 04:33N 44°25' E 037°30'2 1.6
2017-Mar-16 03:33N 44°24' E 037°29'6 6.0
2017-Mar-16 02:32N 44°22' E 037°21'  
2017-Mar-13 08:05N 40°48' E 028°58'3 4.3
2017-Mar-13 07:29N 40°47' E 029°01'  
Track history (hours):
 
Tides and Currents Weather Stations Pressure Air Temp Water Temp Dewpoint Dewpoint Depression Visibility Wind Speed Wind Dir Waves Ship Positions

Maran Pythia

Last reported at 2017-Mar-21 14:32 UTC. Time now 2017-Mar-23 00:12 UTC.
Position N 44°27' E 037°26'.

Length 275 m; draft 15.9 m.

Type: Ship. MMSI: 240893000.

Date/timePositionNaut miles runAvg speedWind from/ knotsBaromVisibWave heightAir tempDewpointWater temp
2017-Mar-21 14:32N 44°27' E 037°26'1312.9
2017-Mar-21 13:34N 44°33' E 037°42'4 0.9
2017-Mar-21 08:34N 44°32' E 037°36'1 0.9
2017-Mar-21 07:33N 44°31' E 037°37'1 0.9
2017-Mar-21 06:34N 44°31' E 037°38'1 0.8
2017-Mar-21 05:34N 44°31' E 037°39'1 0.8
2017-Mar-21 04:33N 44°30' E 037°40'1 0.7
2017-Mar-21 03:33N 44°30' E 037°41'1 0.6
2017-Mar-21 02:34N 44°30' E 037°42'1 0.6
2017-Mar-21 01:33N 44°30' E 037°42'0 0.4
2017-Mar-21 00:33N 44°30' E 037°43'0 0.5
2017-Mar-20 23:33N 44°30' E 037°44'1 0.6
2017-Mar-20 22:34N 44°29' E 037°44'1 1.4
2017-Mar-20 21:34N 44°31' E 037°45'2 2.3
2017-Mar-20 20:34N 44°33' E 037°43'1 0.8
2017-Mar-20 19:34N 44°32' E 037°43'1 0.6
2017-Mar-20 18:34N 44°32' E 037°43'1 0.6
2017-Mar-20 17:34N 44°32' E 037°43'1 0.8
2017-Mar-20 16:34N 44°31' E 037°43'3 3.1
2017-Mar-20 15:34N 44°34' E 037°45'0 0.5
2017-Mar-20 14:33N 44°33' E 037°45'1 0.8
2017-Mar-20 13:34N 44°33' E 037°45'1 0.7
2017-Mar-20 12:34N 44°32' E 037°45'1 0.6
2017-Mar-20 11:34N 44°31' E 037°44'1 0.5
2017-Mar-20 10:34N 44°31' E 037°44'0 0.4
2017-Mar-20 09:34N 44°31' E 037°44'0 0.3
2017-Mar-20 08:34N 44°31' E 037°43'0 0.2
2017-Mar-20 07:34N 44°30' E 037°43'0 0.3
2017-Mar-20 06:34N 44°31' E 037°43'0 0.3
2017-Mar-20 05:34N 44°31' E 037°43'0 0.1
2017-Mar-20 04:33N 44°31' E 037°43'1 0.6
2017-Mar-20 03:34N 44°30' E 037°43'1 1.4
2017-Mar-20 02:34N 44°32' E 037°42'1 0.5
2017-Mar-20 01:34N 44°32' E 037°43'1 1.3
2017-Mar-20 00:33N 44°31' E 037°44'1 1.3
2017-Mar-19 23:33N 44°30' E 037°44'2 2.1
2017-Mar-19 22:34N 44°32' E 037°43'1 1.4
2017-Mar-19 21:34N 44°30' E 037°44'1 0.8
2017-Mar-19 20:34N 44°30' E 037°45'2 2.1
2017-Mar-19 19:33N 44°32' E 037°43'1 0.9
2017-Mar-19 18:33N 44°33' E 037°44'2 1.8
2017-Mar-19 17:33N 44°31' E 037°45'0 0.3
2017-Mar-19 16:33N 44°31' E 037°46'2 1.8
2017-Mar-19 15:33N 44°33' E 037°45'2 1.9
2017-Mar-19 14:33N 44°32' E 037°47'2 1.6
2017-Mar-19 13:33N 44°30' E 037°48'3 3.5
2017-Mar-19 12:33N 44°33' E 037°45'2 1.6
2017-Mar-19 11:33N 44°31' E 037°45'2 1.7
2017-Mar-19 10:33N 44°30' E 037°45'2 2.5
2017-Mar-19 09:33N 44°32' E 037°43'2 2.4
2017-Mar-19 08:33N 44°30' E 037°45'5 5.0
2017-Mar-19 07:33N 44°33' E 037°40'2 1.8
2017-Mar-19 06:33N 44°32' E 037°42'2 2.3
2017-Mar-19 05:33N 44°34' E 037°44'1 0.9
2017-Mar-19 04:23N 44°34' E 037°45'1 0.8
2017-Mar-19 03:33N 44°33' E 037°45'1 1.5
2017-Mar-19 02:33N 44°32' E 037°45'0 0.3
2017-Mar-19 01:33N 44°31' E 037°45'3 2.9
2017-Mar-19 00:33N 44°34' E 037°45'1 1.1
2017-Mar-18 23:33N 44°33' E 037°45'1 1.1
2017-Mar-18 22:29N 44°34' E 037°44'3 3.4
2017-Mar-18 21:33N 44°36' E 037°41'1 0.9
2017-Mar-18 20:33N 44°36' E 037°42'0 0.0
2017-Mar-18 19:33N 44°36' E 037°42'2 1.8
2017-Mar-18 18:33N 44°37' E 037°40'1 0.6
2017-Mar-18 17:33N 44°37' E 037°40'0 0.1
2017-Mar-18 16:33N 44°37' E 037°40'0 0.0
2017-Mar-18 15:33N 44°37' E 037°40'0 0.0
2017-Mar-18 14:33N 44°37' E 037°40'0 0.0
2017-Mar-18 13:33N 44°37' E 037°40'0 0.0
2017-Mar-18 12:33N 44°37' E 037°40'0 0.1
2017-Mar-18 11:32N 44°37' E 037°40'0 0.1
2017-Mar-18 10:33N 44°37' E 037°39'0 0.0
2017-Mar-18 09:32N 44°37' E 037°39'0 0.0
2017-Mar-18 08:33N 44°37' E 037°39'0 0.0
2017-Mar-18 07:33N 44°37' E 037°39'0 0.0
2017-Mar-18 06:33N 44°37' E 037°39'0 0.0
2017-Mar-18 05:33N 44°37' E 037°39'0 0.0
2017-Mar-18 04:33N 44°37' E 037°39'0 0.0
2017-Mar-18 03:33N 44°37' E 037°39'0 0.0
2017-Mar-18 02:31N 44°37' E 037°39'0 0.0
2017-Mar-18 01:33N 44°37' E 037°39'0 0.0
2017-Mar-18 00:33N 44°37' E 037°39'0 0.0
2017-Mar-17 23:33N 44°37' E 037°39'0 0.0
2017-Mar-17 22:33N 44°37' E 037°39'0 0.0
2017-Mar-17 21:33N 44°37' E 037°39'0 0.0
2017-Mar-17 20:26N 44°37' E 037°39'0 0.0
2017-Mar-17 19:33N 44°37' E 037°39'0 0.0
2017-Mar-17 18:33N 44°37' E 037°39'0 0.1
2017-Mar-17 17:33N 44°37' E 037°39'1 0.6
2017-Mar-17 16:33N 44°38' E 037°39'3 2.8
2017-Mar-17 15:33N 44°35' E 037°39'6 5.7
2017-Mar-17 14:33N 44°34' E 037°47'5 5.0
2017-Mar-17 13:32N 44°34' E 037°54'0 0.1
2017-Mar-17 12:32N 44°34' E 037°54'0 0.0
2017-Mar-17 11:32N 44°34' E 037°54'0 0.0
2017-Mar-17 10:32N 44°34' E 037°54'0 0.0
2017-Mar-17 09:29N 44°35' E 037°54'0 0.1
2017-Mar-17 08:32N 44°34' E 037°54'0 0.0
2017-Mar-17 07:32N 44°34' E 037°54'0 0.1
2017-Mar-17 06:32N 44°35' E 037°54'0 0.0
2017-Mar-17 05:32N 44°35' E 037°54'0 0.0
2017-Mar-17 04:32N 44°35' E 037°54'0 0.0
2017-Mar-17 03:32N 44°35' E 037°54'0 0.0
2017-Mar-17 02:32N 44°35' E 037°54'0 0.0
2017-Mar-17 01:29N 44°34' E 037°54'0 0.0
2017-Mar-17 00:32N 44°34' E 037°54'0 0.0
2017-Mar-16 23:32N 44°35' E 037°54'0 0.0
2017-Mar-16 22:32N 44°34' E 037°54'0 0.0
2017-Mar-16 21:29N 44°34' E 037°54'0 0.0
2017-Mar-16 20:29N 44°34' E 037°54'0 0.0
2017-Mar-16 19:32N 44°34' E 037°54'0 0.0
2017-Mar-16 18:32N 44°34' E 037°54'0 0.1
2017-Mar-16 17:32N 44°34' E 037°54'0 0.0
2017-Mar-16 16:32N 44°34' E 037°54'0 0.0
2017-Mar-16 15:32N 44°34' E 037°54'0 0.0
2017-Mar-16 14:32N 44°34' E 037°54'0 0.1
2017-Mar-16 13:33N 44°34' E 037°54'3 3.2
2017-Mar-16 12:33N 44°36' E 037°50'4 3.8
2017-Mar-16 11:33N 44°37' E 037°45'1 0.8
2017-Mar-16 10:33N 44°37' E 037°44'2 2.0
2017-Mar-16 09:33N 44°36' E 037°42'9 9.5
2017-Mar-16 08:33N 44°29' E 037°33'6 6.3
2017-Mar-16 07:33N 44°34' E 037°38'0 0.3
2017-Mar-16 06:33N 44°34' E 037°38'6 5.8
2017-Mar-16 05:33N 44°28' E 037°37'6 5.7
2017-Mar-16 04:33N 44°25' E 037°30'2 1.6
2017-Mar-16 03:33N 44°24' E 037°29'6 6.0
2017-Mar-16 02:32N 44°22' E 037°21'  
2017-Mar-13 08:05N 40°48' E 028°58'3 4.3
2017-Mar-13 07:29N 40°47' E 029°01'  

Dump ship's entire track history